createdAt,value
2023-05-06T00:01:26.309Z,11.77
2023-05-06T00:03:54.695Z,11.77
2023-05-06T00:06:23.444Z,11.76
2023-05-06T00:08:53.145Z,11.76
2023-05-06T00:11:23.709Z,11.76
2023-05-06T00:13:53.997Z,11.75
2023-05-06T00:16:23.331Z,11.73
2023-05-06T00:18:56.422Z,11.71
2023-05-06T00:21:24.624Z,11.70
2023-05-06T00:23:52.855Z,11.69
2023-05-06T00:26:21.126Z,11.68
2023-05-06T00:28:49.554Z,11.66
2023-05-06T00:31:17.945Z,11.63
2023-05-06T00:33:48.395Z,11.60
2023-05-06T00:36:16.651Z,11.57
2023-05-06T00:38:44.925Z,11.52
2023-05-06T00:41:17.135Z,11.48
2023-05-06T00:43:45.802Z,11.43
2023-05-06T00:46:16.402Z,11.40
2023-05-06T00:48:44.468Z,11.38
2023-05-06T00:51:13.501Z,11.34
2023-05-06T00:53:41.743Z,11.32
2023-05-06T00:56:09.887Z,11.30
2023-05-06T00:58:39.078Z,11.26
2023-05-06T01:01:08.606Z,11.22
2023-05-06T01:03:38.243Z,11.17
2023-05-06T01:06:19.511Z,11.14
2023-05-06T01:09:01.905Z,11.10
2023-05-06T01:11:42.184Z,11.06
2023-05-06T01:14:41.690Z,11.03
2023-05-06T01:17:12.914Z,11.00
2023-05-06T01:19:56.859Z,10.97
2023-05-06T01:22:27.149Z,10.93
2023-05-06T01:24:55.333Z,10.91
2023-05-06T01:27:23.431Z,10.88
2023-05-06T01:29:54.939Z,10.86
2023-05-06T01:32:44.930Z,10.85
2023-05-06T01:35:19.339Z,10.83
2023-05-06T01:38:29.324Z,10.81
2023-05-06T01:41:01.615Z,10.80
2023-05-06T01:43:40.700Z,10.80
2023-05-06T01:46:31.480Z,10.80
2023-05-06T01:49:08.261Z,10.80
2023-05-06T01:51:36.433Z,10.80
2023-05-06T01:54:05.095Z,10.81
2023-05-06T01:56:34.728Z,10.82
2023-05-06T01:59:03.147Z,10.83
2023-05-06T02:01:32.086Z,10.84
2023-05-06T02:04:01.792Z,10.84
2023-05-06T02:06:30.432Z,10.84
2023-05-06T02:08:58.586Z,10.82
2023-05-06T02:11:34.809Z,10.80
2023-05-06T02:14:07.217Z,10.77
2023-05-06T02:16:36.478Z,10.74
2023-05-06T02:19:06.154Z,10.69
2023-05-06T02:21:34.632Z,10.65
2023-05-06T02:24:02.951Z,10.60
2023-05-06T02:26:31.259Z,10.55
2023-05-06T02:28:59.536Z,10.51
2023-05-06T02:31:30.394Z,10.47
2023-05-06T02:33:58.795Z,10.44
2023-05-06T02:36:27.862Z,10.40
2023-05-06T02:38:56.148Z,10.37
2023-05-06T02:41:24.470Z,10.34
2023-05-06T02:43:53.766Z,10.32
2023-05-06T02:46:22.036Z,10.30
2023-05-06T02:48:50.331Z,10.29
2023-05-06T02:51:18.607Z,10.27
2023-05-06T02:53:46.850Z,10.26
2023-05-06T02:56:15.098Z,10.24
2023-05-06T02:58:43.401Z,10.24
2023-05-06T03:01:14.278Z,10.25
2023-05-06T03:03:42.698Z,10.26
2023-05-06T03:06:13.389Z,10.28
2023-05-06T03:08:56.052Z,10.31
2023-05-06T03:11:25.864Z,10.32
2023-05-06T03:13:54.065Z,10.34
2023-05-06T03:16:22.274Z,10.35
2023-05-06T03:18:56.835Z,10.34
2023-05-06T03:21:27.057Z,10.34
2023-05-06T03:23:55.292Z,10.34
2023-05-06T03:26:26.793Z,10.35
2023-05-06T03:28:54.870Z,10.38
2023-05-06T03:31:26.119Z,10.38
2023-05-06T03:33:54.758Z,10.38
2023-05-06T03:36:25.456Z,10.43
2023-05-06T03:38:54.623Z,10.47
2023-05-06T03:41:23.821Z,10.63
2023-05-06T03:43:52.811Z,10.82
2023-05-06T03:46:24.095Z,10.98
2023-05-06T03:48:52.346Z,11.22
2023-05-06T03:51:22.419Z,11.43
2023-05-06T03:53:52.352Z,11.48
2023-05-06T03:56:23.252Z,11.59
2023-05-06T03:58:54.269Z,11.90
2023-05-06T04:01:24.596Z,12.19
2023-05-06T04:03:54.631Z,12.38
2023-05-06T04:06:23.355Z,12.59
2023-05-06T04:08:51.503Z,12.86
2023-05-06T04:11:20.921Z,13.25
2023-05-06T04:13:49.600Z,13.60
2023-05-06T04:16:19.731Z,13.92
2023-05-06T04:18:49.683Z,14.21
2023-05-06T04:21:20.091Z,14.41
2023-05-06T04:23:53.044Z,14.73
2023-05-06T04:26:24.226Z,15.08
2023-05-06T04:28:53.779Z,15.40
2023-05-06T04:31:21.971Z,15.78
2023-05-06T04:33:53.620Z,16.17
2023-05-06T04:36:24.145Z,16.50
2023-05-06T04:39:11.554Z,16.79
2023-05-06T04:41:43.120Z,16.94
2023-05-06T04:44:15.197Z,17.08
2023-05-06T04:46:44.571Z,17.31
2023-05-06T04:49:13.228Z,17.63
2023-05-06T04:51:45.696Z,17.93
2023-05-06T04:54:14.563Z,18.21
2023-05-06T04:56:43.452Z,18.34
2023-05-06T04:59:12.145Z,18.42
2023-05-06T05:01:41.512Z,18.50
2023-05-06T05:04:12.276Z,18.58
2023-05-06T05:06:41.137Z,18.63
2023-05-06T05:09:13.814Z,18.75
2023-05-06T05:11:44.537Z,18.94
2023-05-06T05:14:12.496Z,19.12
2023-05-06T05:16:42.076Z,19.36
2023-05-06T05:19:10.933Z,19.64
2023-05-06T05:21:41.360Z,19.86
2023-05-06T05:24:10.399Z,20.07
2023-05-06T05:26:40.856Z,20.28
2023-05-06T05:29:11.498Z,20.52
2023-05-06T05:31:39.863Z,20.81
2023-05-06T05:34:07.947Z,21.07
2023-05-06T05:36:38.089Z,21.21
2023-05-06T05:39:09.635Z,21.35
2023-05-06T05:41:41.058Z,21.45
2023-05-06T05:44:09.782Z,21.54
2023-05-06T05:46:39.542Z,21.62
2023-05-06T05:49:07.940Z,21.59
2023-05-06T05:51:38.819Z,21.64
2023-05-06T05:54:10.224Z,21.68
2023-05-06T05:56:41.651Z,21.77
2023-05-06T05:59:09.815Z,21.92
2023-05-06T06:01:37.788Z,22.03
2023-05-06T06:04:07.353Z,22.01
2023-05-06T06:06:35.526Z,21.91
2023-05-06T06:09:04.345Z,21.62
2023-05-06T06:11:35.143Z,21.17
2023-05-06T06:14:07.222Z,20.73
2023-05-06T06:16:36.912Z,20.33
2023-05-06T06:19:06.395Z,20.10
2023-05-06T06:21:34.532Z,19.74
2023-05-06T06:24:02.815Z,19.50
2023-05-06T06:26:31.651Z,19.33
2023-05-06T06:29:01.131Z,19.18
2023-05-06T06:31:33.880Z,19.03
2023-05-06T06:34:15.129Z,18.98
2023-05-06T06:36:52.727Z,18.93
2023-05-06T06:39:20.889Z,18.96
2023-05-06T06:41:48.871Z,19.02
2023-05-06T06:44:16.857Z,19.06
2023-05-06T06:46:45.056Z,19.16
2023-05-06T06:49:16.500Z,19.26
2023-05-06T06:51:44.214Z,19.38
2023-05-06T06:54:12.130Z,19.49
2023-05-06T06:56:42.114Z,19.56
2023-05-06T06:59:10.049Z,19.54
2023-05-06T07:01:38.041Z,19.63
2023-05-06T07:04:07.305Z,19.73
2023-05-06T07:06:35.329Z,19.80
2023-05-06T07:09:03.385Z,19.79
2023-05-06T07:11:31.153Z,19.84
2023-05-06T07:14:02.297Z,19.93
2023-05-06T07:16:30.313Z,20.00
2023-05-06T07:19:01.392Z,20.03
2023-05-06T07:21:32.287Z,20.11
2023-05-06T07:24:00.265Z,20.25
2023-05-06T07:26:30.984Z,20.43
2023-05-06T07:28:58.825Z,20.56
2023-05-06T07:31:27.014Z,20.59
2023-05-06T07:33:54.987Z,20.59
2023-05-06T07:36:22.735Z,20.69
2023-05-06T07:38:50.788Z,20.82
2023-05-06T07:41:18.812Z,20.93
2023-05-06T07:43:46.615Z,21.03
2023-05-06T07:46:14.570Z,21.09
2023-05-06T07:48:42.766Z,21.11
2023-05-06T07:51:11.017Z,21.21
2023-05-06T07:53:40.308Z,21.38
2023-05-06T07:56:08.457Z,21.51
2023-05-06T08:01:25.904Z,21.72
2023-05-06T08:03:56.845Z,21.83
2023-05-06T08:06:27.415Z,21.89
2023-05-06T08:08:55.363Z,21.92
2023-05-06T08:11:32.688Z,21.97
2023-05-06T08:14:00.717Z,22.02
2023-05-06T08:16:28.734Z,21.97
2023-05-06T08:18:59.167Z,21.99
2023-05-06T08:21:27.832Z,21.99
2023-05-06T08:23:57.202Z,22.01
2023-05-06T08:26:25.132Z,22.08
2023-05-06T08:28:53.052Z,22.11
2023-05-06T08:31:21.055Z,22.17
2023-05-06T08:33:53.886Z,22.27
2023-05-06T08:36:22.624Z,22.35
2023-05-06T08:38:51.471Z,22.42
2023-05-06T08:44:18.173Z,22.53
2023-05-06T08:46:51.673Z,22.53
2023-05-06T08:49:32.326Z,22.57
2023-05-06T08:52:10.065Z,22.59
2023-05-06T08:54:40.092Z,22.64
2023-05-06T08:57:14.498Z,22.69
2023-05-06T08:59:42.541Z,22.80
2023-05-06T09:02:11.450Z,22.89
2023-05-06T09:04:40.573Z,22.88
2023-05-06T09:07:08.416Z,22.96
2023-05-06T09:09:38.864Z,22.96
2023-05-06T09:12:12.292Z,22.98
2023-05-06T09:14:40.451Z,23.08
2023-05-06T09:17:23.708Z,23.22
2023-05-06T09:19:59.877Z,23.36
2023-05-06T09:22:32.844Z,23.42
2023-05-06T09:25:00.863Z,23.49
2023-05-06T09:27:37.047Z,23.55
2023-05-06T09:30:06.378Z,23.61
2023-05-06T09:32:36.720Z,23.68
2023-05-06T09:35:07.163Z,23.73
2023-05-06T09:37:36.375Z,23.73
2023-05-06T09:40:04.676Z,23.70
2023-05-06T09:42:33.464Z,23.72
2023-05-06T09:45:02.626Z,23.69
2023-05-06T09:47:35.386Z,23.67
2023-05-06T09:50:05.724Z,23.38
2023-05-06T09:52:37.184Z,23.23
2023-05-06T09:55:19.223Z,23.16
2023-05-06T09:57:50.507Z,23.27
2023-05-06T10:00:19.013Z,23.38
2023-05-06T10:02:48.074Z,23.50
2023-05-06T10:05:16.962Z,23.56
2023-05-06T10:07:47.718Z,23.67
2023-05-06T10:10:15.824Z,23.77
2023-05-06T10:12:44.229Z,23.83
2023-05-06T10:15:12.692Z,23.87
2023-05-06T10:17:45.344Z,23.68
2023-05-06T10:20:14.691Z,23.68
2023-05-06T10:22:51.984Z,23.79
2023-05-06T10:25:29.111Z,23.94
2023-05-06T10:27:56.904Z,23.88
2023-05-06T10:30:26.672Z,23.85
2023-05-06T10:32:56.702Z,23.99
2023-05-06T10:35:33.798Z,24.08
2023-05-06T10:38:03.857Z,24.24
2023-05-06T10:40:31.916Z,24.43
2023-05-06T10:43:35.723Z,24.58
2023-05-06T10:46:03.716Z,24.52
2023-05-06T10:48:32.291Z,24.39
2023-05-06T10:51:19.743Z,24.35
2023-05-06T10:53:56.540Z,24.34
2023-05-06T10:56:27.551Z,24.39
2023-05-06T10:58:56.001Z,24.53
2023-05-06T11:01:27.433Z,24.64
2023-05-06T11:03:55.628Z,24.77
2023-05-06T11:06:33.291Z,24.91
2023-05-06T11:09:02.045Z,25.02
2023-05-06T11:11:48.505Z,25.12
2023-05-06T11:14:43.133Z,25.18
2023-05-06T11:17:29.688Z,25.23
2023-05-06T11:20:34.715Z,25.18
2023-05-06T11:23:14.119Z,25.11
2023-05-06T11:25:54.945Z,25.13
2023-05-06T11:28:25.980Z,25.18
2023-05-06T11:31:03.744Z,25.27
2023-05-06T11:33:34.547Z,25.09
2023-05-06T11:36:07.866Z,24.84
2023-05-06T11:38:46.370Z,24.61
2023-05-06T11:41:15.365Z,24.50
2023-05-06T11:43:51.895Z,24.47
2023-05-06T11:46:24.036Z,24.58
2023-05-06T11:48:57.050Z,24.68
2023-05-06T11:51:25.854Z,24.82
2023-05-06T11:54:07.951Z,24.92
2023-05-06T11:56:52.835Z,24.66
2023-05-06T11:59:52.768Z,24.67
2023-05-06T12:02:39.123Z,24.82
2023-05-06T12:05:11.029Z,24.94
2023-05-06T12:07:45.118Z,25.04
2023-05-06T12:10:18.521Z,25.12
2023-05-06T12:12:46.832Z,25.20
2023-05-06T12:15:16.602Z,25.29
2023-05-06T12:17:51.521Z,25.33
2023-05-06T12:20:23.616Z,25.37
2023-05-06T12:23:11.497Z,25.36
2023-05-06T12:25:43.298Z,25.31
2023-05-06T12:28:18.633Z,25.30
2023-05-06T12:30:49.496Z,25.25
2023-05-06T12:33:21.215Z,25.23
2023-05-06T12:35:58.739Z,25.19
2023-05-06T12:38:32.450Z,25.16
2023-05-06T12:41:04.367Z,25.13
2023-05-06T12:43:37.038Z,24.88
2023-05-06T12:46:17.655Z,24.68
2023-05-06T12:49:03.489Z,24.61
2023-05-06T12:51:35.836Z,24.57
2023-05-06T12:54:29.747Z,24.18
2023-05-06T12:56:59.211Z,24.12
2023-05-06T12:59:38.776Z,24.08
2023-05-06T13:02:15.285Z,23.88
2023-05-06T13:06:30.619Z,23.94
2023-05-06T13:08:08.418Z,24.19
2023-05-06T13:10:49.560Z,24.41
2023-05-06T13:13:20.305Z,24.57
2023-05-06T13:15:55.994Z,24.73
2023-05-06T13:18:26.528Z,24.82
2023-05-06T13:21:00.627Z,24.85
2023-05-06T13:23:28.784Z,24.93
2023-05-06T13:26:04.888Z,24.87
2023-05-06T13:28:45.447Z,24.77
2023-05-06T13:31:36.904Z,24.73
2023-05-06T13:34:08.106Z,24.72
2023-05-06T13:36:47.831Z,24.73
2023-05-06T13:39:23.010Z,24.78
2023-05-06T13:41:53.262Z,24.82
2023-05-06T13:44:42.328Z,24.85
2023-05-06T13:47:36.986Z,24.86
2023-05-06T13:50:46.740Z,24.87
2023-05-06T13:53:19.620Z,24.95
2023-05-06T13:55:51.055Z,24.89
2023-05-06T13:58:23.328Z,24.51
2023-05-06T14:00:54.035Z,24.49
2023-05-06T14:03:31.633Z,24.57
2023-05-06T14:06:03.415Z,24.69
2023-05-06T14:08:39.210Z,24.75
2023-05-06T14:11:07.826Z,24.80
2023-05-06T14:14:08.741Z,24.80
2023-05-06T14:16:46.578Z,24.81
2023-05-06T14:19:24.351Z,24.81
2023-05-06T14:21:53.699Z,24.82
2023-05-06T14:24:27.974Z,24.84
2023-05-06T14:27:08.675Z,24.85
2023-05-06T14:30:09.399Z,24.81
2023-05-06T14:32:48.807Z,24.77
2023-05-06T14:35:23.332Z,24.73
2023-05-06T14:38:06.237Z,24.73
2023-05-06T14:40:38.884Z,24.67
2023-05-06T14:43:51.098Z,24.64
2023-05-06T14:46:19.702Z,24.59
2023-05-06T14:49:05.783Z,24.56
2023-05-06T14:51:54.280Z,24.54
2023-05-06T14:54:45.106Z,24.51
2023-05-06T14:57:18.899Z,24.47
2023-05-06T15:00:30.151Z,24.47
2023-05-06T15:06:11.917Z,24.37
2023-05-06T15:09:17.081Z,24.36
2023-05-06T15:12:11.648Z,24.36
2023-05-06T15:15:02.886Z,24.36
2023-05-06T15:18:04.089Z,24.37
2023-05-06T15:20:43.165Z,24.34
2023-05-06T15:23:29.459Z,24.28
2023-05-06T15:26:06.135Z,24.23
2023-05-06T15:28:52.628Z,24.19
2023-05-06T15:34:47.955Z,24.20
2023-05-06T15:37:32.212Z,24.33
2023-05-06T15:40:12.654Z,24.52
2023-05-06T15:43:23.260Z,24.72
2023-05-06T15:46:20.828Z,24.87
2023-05-06T15:48:52.043Z,25.01
2023-05-06T15:51:42.705Z,25.10
2023-05-06T15:54:26.705Z,25.15
2023-05-06T15:57:11.787Z,25.18
2023-05-06T16:00:00.706Z,25.19
2023-05-06T16:02:46.777Z,25.21
2023-05-06T16:05:17.748Z,25.27
2023-05-06T16:09:31.558Z,25.29
2023-05-06T16:11:00.485Z,25.32
2023-05-06T16:13:30.268Z,25.38
2023-05-06T16:16:30.036Z,25.42
2023-05-06T16:19:11.295Z,25.44
2023-05-06T16:21:39.728Z,25.42
2023-05-06T16:24:07.723Z,25.40
2023-05-06T16:26:36.060Z,25.45
2023-05-06T16:29:15.925Z,25.48
2023-05-06T16:31:44.180Z,25.43
2023-05-06T16:34:12.782Z,25.38
2023-05-06T16:36:49.058Z,25.35
2023-05-06T16:39:22.149Z,25.30
2023-05-06T16:41:52.548Z,25.19
2023-05-06T16:44:20.632Z,25.05
2023-05-06T16:46:48.865Z,24.92
2023-05-06T16:49:16.726Z,24.75
2023-05-06T16:51:45.257Z,24.56
2023-05-06T16:54:15.810Z,24.37
2023-05-06T16:56:51.433Z,24.19
2023-05-06T16:59:22.200Z,24.01
2023-05-06T17:01:52.665Z,23.82
2023-05-06T17:04:20.671Z,23.67
2023-05-06T17:06:48.728Z,23.56
2023-05-06T17:09:17.186Z,23.45
2023-05-06T17:11:45.230Z,23.30
2023-05-06T17:14:14.096Z,23.15
2023-05-06T17:16:45.380Z,23.00
2023-05-06T17:19:13.483Z,22.83
2023-05-06T17:21:41.320Z,22.64
2023-05-06T17:24:09.444Z,22.43
2023-05-06T17:26:38.852Z,22.21
2023-05-06T17:29:07.189Z,22.02
2023-05-06T17:31:35.012Z,21.81
2023-05-06T17:34:03.985Z,21.62
2023-05-06T17:36:31.983Z,21.43
2023-05-06T17:39:04.693Z,21.25
2023-05-06T17:41:33.616Z,21.07
2023-05-06T17:44:01.591Z,20.91
2023-05-06T17:46:29.679Z,20.74
2023-05-06T17:48:57.641Z,20.58
2023-05-06T17:51:26.846Z,20.43
2023-05-06T17:53:56.240Z,20.27
2023-05-06T17:56:25.379Z,20.13
2023-05-06T17:58:53.487Z,19.99
2023-05-06T18:01:21.479Z,19.86
2023-05-06T18:03:49.483Z,19.73
2023-05-06T18:06:17.353Z,19.61
2023-05-06T18:08:45.492Z,19.49
2023-05-06T18:11:13.315Z,19.37
2023-05-06T18:13:41.357Z,19.26
2023-05-06T18:16:09.534Z,19.14
2023-05-06T18:18:37.514Z,19.04
2023-05-06T18:21:05.727Z,18.92
2023-05-06T18:23:33.661Z,18.83
2023-05-06T18:26:04.012Z,18.74
2023-05-06T18:28:32.547Z,18.64
2023-05-06T18:31:00.459Z,18.55
2023-05-06T18:33:28.283Z,18.46
2023-05-06T18:35:56.530Z,18.37
2023-05-06T18:38:26.453Z,18.29
2023-05-06T18:40:54.290Z,18.21
2023-05-06T18:43:22.199Z,18.14
2023-05-06T18:45:52.096Z,18.08
2023-05-06T18:48:23.123Z,18.02
2023-05-06T18:51:09.971Z,17.98
2023-05-06T18:53:40.094Z,17.95
2023-05-06T18:56:08.268Z,17.91
2023-05-06T18:58:37.228Z,17.87
2023-05-06T19:01:06.211Z,17.83
2023-05-06T19:03:34.611Z,17.78
2023-05-06T19:06:03.299Z,17.74
2023-05-06T19:08:31.759Z,17.69
2023-05-06T19:11:00.244Z,17.64
2023-05-06T19:13:28.477Z,17.58
2023-05-06T19:15:57.182Z,17.52
2023-05-06T19:18:25.081Z,17.47
2023-05-06T19:20:53.469Z,17.42
2023-05-06T19:23:22.106Z,17.37
2023-05-06T19:25:50.168Z,17.34
2023-05-06T19:28:26.680Z,17.32
2023-05-06T19:30:54.522Z,17.30
2023-05-06T19:33:22.871Z,17.29
2023-05-06T19:35:51.661Z,17.27
2023-05-06T19:38:19.940Z,17.25
2023-05-06T19:40:48.071Z,17.23
2023-05-06T19:43:16.147Z,17.21
2023-05-06T19:45:44.049Z,17.19
2023-05-06T19:48:14.537Z,17.16
2023-05-06T19:50:42.508Z,17.12
2023-05-06T19:53:10.947Z,17.08
2023-05-06T19:55:38.724Z,17.04
2023-05-06T19:58:06.598Z,17.00
2023-05-06T20:00:34.536Z,16.96
2023-05-06T20:03:04.830Z,16.93
2023-05-06T20:05:32.572Z,16.91
2023-05-06T20:08:00.541Z,16.89
2023-05-06T20:10:28.677Z,16.87
2023-05-06T20:12:57.872Z,16.87
2023-05-06T20:15:26.724Z,16.87
2023-05-06T20:17:54.684Z,16.88
2023-05-06T20:20:22.554Z,16.88
2023-05-06T20:22:50.532Z,16.88
2023-05-06T20:25:18.814Z,16.89
2023-05-06T20:27:47.005Z,16.92
2023-05-06T20:30:14.936Z,16.95
2023-05-06T20:32:42.866Z,16.99
2023-05-06T20:35:12.337Z,17.02
2023-05-06T20:37:44.251Z,16.95
2023-05-06T20:40:12.682Z,16.84
2023-05-06T20:42:40.651Z,16.79
2023-05-06T20:45:09.270Z,16.83
2023-05-06T20:47:37.389Z,16.90
2023-05-06T20:50:05.617Z,16.93
2023-05-06T20:52:34.222Z,16.96
2023-05-06T20:55:03.272Z,16.99
2023-05-06T20:57:31.062Z,17.01
2023-05-06T20:59:58.975Z,17.02
2023-05-06T21:02:29.279Z,17.03
2023-05-06T21:04:57.350Z,17.03
2023-05-06T21:07:25.088Z,17.04
2023-05-06T21:09:52.910Z,17.03
2023-05-06T21:12:20.777Z,17.01
2023-05-06T21:14:48.636Z,16.99
2023-05-06T21:17:16.531Z,16.94
2023-05-06T21:19:44.503Z,16.88
2023-05-06T21:22:12.848Z,16.84
2023-05-06T21:24:40.789Z,16.79
2023-05-06T21:27:09.027Z,16.76
2023-05-06T21:29:39.629Z,16.74
2023-05-06T21:32:07.489Z,16.72
2023-05-06T21:34:35.590Z,16.70
2023-05-06T21:37:03.386Z,16.67
2023-05-06T21:39:31.586Z,16.63
2023-05-06T21:41:59.522Z,16.60
2023-05-06T21:44:27.577Z,16.57
2023-05-06T21:46:55.605Z,16.55
2023-05-06T21:49:23.469Z,16.52
2023-05-06T21:51:51.548Z,16.49
2023-05-06T21:54:19.451Z,16.46
2023-05-06T21:56:47.381Z,16.43
2023-05-06T21:59:15.265Z,16.40
2023-05-06T22:01:43.058Z,16.37
2023-05-06T22:04:13.136Z,16.35
2023-05-06T22:06:41.537Z,16.35
2023-05-06T22:09:09.902Z,16.33
2023-05-06T22:11:38.665Z,16.33
2023-05-06T22:14:07.046Z,16.33
2023-05-06T22:16:35.735Z,16.33
2023-05-06T22:19:05.966Z,16.33
2023-05-06T22:21:35.169Z,16.34
2023-05-06T22:24:03.108Z,16.34
2023-05-06T22:26:33.066Z,16.35
2023-05-06T22:29:01.009Z,16.36
2023-05-06T22:31:28.837Z,16.37
2023-05-06T22:33:58.328Z,16.38
2023-05-06T22:36:29.315Z,16.39
2023-05-06T22:38:57.556Z,16.40
2023-05-06T22:41:25.995Z,16.40
2023-05-06T22:43:53.881Z,16.40
2023-05-06T22:46:22.015Z,16.38
2023-05-06T22:48:51.135Z,16.36
2023-05-06T22:51:21.227Z,16.34
2023-05-06T22:53:49.060Z,16.33
2023-05-06T22:56:17.342Z,16.34
2023-05-06T22:58:45.417Z,16.35
2023-05-06T23:01:13.938Z,16.34
2023-05-06T23:03:42.067Z,16.36
2023-05-06T23:06:10.763Z,16.37
2023-05-06T23:08:38.971Z,16.36
2023-05-06T23:11:07.117Z,16.36
2023-05-06T23:13:36.626Z,16.34
2023-05-06T23:16:05.455Z,16.32
2023-05-06T23:18:33.501Z,16.28
2023-05-06T23:21:01.570Z,16.28
2023-05-06T23:23:29.953Z,16.28
2023-05-06T23:26:00.484Z,16.28
2023-05-06T23:28:30.630Z,16.29
2023-05-06T23:30:59.045Z,16.26
2023-05-06T23:33:27.392Z,16.24
2023-05-06T23:35:55.651Z,16.22
2023-05-06T23:38:23.776Z,16.20
2023-05-06T23:40:51.720Z,16.16
2023-05-06T23:43:19.635Z,16.12
2023-05-06T23:45:47.528Z,16.09
2023-05-06T23:48:15.460Z,16.09
2023-05-06T23:50:43.338Z,16.10
2023-05-06T23:53:11.650Z,16.10
2023-05-06T23:55:39.604Z,16.12
2023-05-06T23:58:07.426Z,16.14
